หน้าหลัก
METAR-TAF:

METAR-TAF

ท่าอากาศยาน :

Balmaceda, ชิลี

ละติจูด: 45-55S, ลองจิจูด: 071-41W, ความสูง: 520 ม.

การสังเกตสภาพอากาศปัจจุบัน

รายงานได้ทำขึ้นเมื่อ 49 นาทีที่แล้ว ณ เวลา 18:00 UTC
ลม 22 นอตจากตะวันตก
อุณหภูมิ 5°C
ความชื้น 75%
ความกดอากาศ 1014 hPa
ทัศนวิสัย 10 กม. หรือมากกว่า
ไม่มีเมฆต่ำกว่า 1,500 ม. และไม่มีเมฆคิวมูโลนิมบัส

METAR: SCBA 201800Z 28022KT CAVOK 05/01 Q1014

เวลา: 14:49 (18:49 UTC)

การพยากรณ์

รายงานได้ทำขึ้นเมื่อ 2 ชั่วโมงและ 41 นาทีที่แล้ว ณ เวลา 16:08 UTC
การพยากรณ์มีผลตั้งแต่วันที่ 20 ณ เวลา 18 UTC จนถึงวันที่ 21 ณ เวลา 18 UTC
ลม 18 นอตจากตะวันตก/ตะวันตกเฉียงเหนือ
ทัศนวิสัย 10 กม. หรือมากกว่า
มีเมฆกระจายเป็นบางส่วนที่ความสูง 5000 ฟุต
กำลังกลายเป็น
ตั้งแต่วันที่ 21 ณ เวลา 11 UTC จนถึงวันที่ 21 ณ เวลา 13 UTC
ลม 20 นอตจากตะวันตก/ตะวันตกเฉียงเหนือโดยมีลมกระโชกได้ถึง35 นอต
มีเมฆกระจายเป็นบางส่วนที่ความสูง 3500 ฟุต

TAF: SCBA 201608Z 2018/2118 30018KT 9999 SCT050 TX06/2019Z TN03/2111Z BECMG 2111/2113 30020G35KT SCT035

สังเกตการณ์สภาพอากาศและพยากรณ์อากาศของสนามบินมากกว่า 4000 แห่ง (รายงาน METAR และ TAF).

สถานีที่ดูได้จะแสดงไว้ด้วยจุดสีเหลืองและสีแดงบนแผนที่.

เลื่อนเมาส์ไปเหนือจุดเพื่อดูชื่อสถานี.

แล้วคลิกเพื่อดูสังเกตการณ์และการพยากรณ์สภาพอากาศ.

ในการเปลี่ยนแผนที่: คลิกที่ปุ่มสีเขียวที่มีกากบาทสีดำเพื่อซูมเข้า; ที่ปุ่มสีเขียวที่มีขีดเพื่อซูมออก; หรือที่ลูกศรสีเขียวเพื่อไปยังแผนที่ที่อยู่ติดกัน.


METAR-TAF: